Time,TemperatureF,DewpointF,PressureIn,WindDirection,WindDirectionDegrees,WindSpeedMPH,WindSpeedGustMPH,Humidity,HourlyPrecipIn,Conditions,Clouds,dailyrainin,SoftwareType,DateUTC
2013-01-17 00:04:00,42.8,11.7,30.16,ESE,113,0.4,0.4,28,0.00,,,0.00,WUHU216HW,2013-01-17 07:04:00,
2013-01-17 00:59:00,43.0,11.9,30.16,NW,315,1.8,1.8,28,0.00,,,0.00,WUHU216HW,2013-01-17 07:59:00,
2013-01-17 01:04:00,43.0,11.9,30.16,NW,315,1.8,1.8,28,0.00,,,0.00,WUHU216HW,2013-01-17 08:04:00,
2013-01-17 01:59:00,42.7,12.4,30.15,NNE,23,0.4,0.4,29,0.00,,,0.00,WUHU216HW,2013-01-17 08:59:00,
2013-01-17 02:04:00,42.8,12.6,30.15,NNE,23,0.4,0.9,29,0.00,,,0.00,WUHU216HW,2013-01-17 09:04:00,
2013-01-17 02:09:00,42.8,12.6,30.15,NNE,23,0.4,0.9,29,0.00,,,0.00,WUHU216HW,2013-01-17 09:09:00,
2013-01-17 02:30:00,42.7,11.5,30.14,NNW,338,1.3,1.3,28,0.00,,,0.00,WUHU216HW,2013-01-17 09:30:00,
2013-01-17 02:35:00,42.7,11.5,30.14,NNW,338,1.3,1.3,28,0.00,,,0.00,WUHU216HW,2013-01-17 09:35:00,
2013-01-17 02:59:00,43.2,12.1,30.15,North,0,1.8,1.8,28,0.00,,,0.00,WUHU216HW,2013-01-17 09:59:00,
2013-01-17 03:04:00,43.2,12.1,30.15,North,0,1.8,1.8,28,0.00,,,0.00,WUHU216HW,2013-01-17 10:04:00,
2013-01-17 03:29:00,43.7,12.5,30.15,NW,315,1.1,1.1,28,0.00,,,0.00,WUHU216HW,2013-01-17 10:29:00,
2013-01-17 03:34:00,43.7,12.5,30.15,NW,315,1.1,1.1,28,0.00,,,0.00,WUHU216HW,2013-01-17 10:34:00,
2013-01-17 03:59:00,41.9,11.0,30.14,ESE,113,1.3,1.3,28,0.00,,,0.00,WUHU216HW,2013-01-17 10:59:00,
2013-01-17 04:04:00,41.9,11.0,30.14,ESE,113,1.3,1.3,28,0.00,,,0.00,WUHU216HW,2013-01-17 11:04:00,
2013-01-17 04:29:00,40.7,10.8,30.14,ENE,68,1.1,1.1,29,0.00,,,0.00,WUHU216HW,2013-01-17 11:29:00,
2013-01-17 04:34:00,40.7,10.8,30.14,ENE,68,1.1,1.1,29,0.00,,,0.00,WUHU216HW,2013-01-17 11:34:00,
2013-01-17 04:39:00,40.7,10.8,30.14,ENE,68,1.1,1.1,29,0.00,,,0.00,WUHU216HW,2013-01-17 11:39:00,
2013-01-17 04:59:00,42.8,12.6,30.15,NNE,23,3.4,3.4,29,0.00,,,0.00,WUHU216HW,2013-01-17 11:59:00,
2013-01-17 05:04:00,42.8,12.6,30.15,NNE,23,3.4,3.4,29,0.00,,,0.00,WUHU216HW,2013-01-17 12:04:00,
2013-01-17 05:29:00,41.4,11.4,30.14,ENE,68,1.8,1.8,29,0.00,,,0.00,WUHU216HW,2013-01-17 12:29:00,
2013-01-17 05:34:00,41.4,11.4,30.14,ENE,68,1.8,1.8,29,0.00,,,0.00,WUHU216HW,2013-01-17 12:34:00,
2013-01-17 05:59:00,41.6,11.6,30.14,ENE,68,1.3,1.3,29,0.00,,,0.00,WUHU216HW,2013-01-17 12:59:00,
2013-01-17 06:04:00,41.6,11.6,30.14,ENE,68,1.3,1.3,29,0.00,,,0.00,WUHU216HW,2013-01-17 13:04:00,
2013-01-17 06:29:00,41.4,11.4,30.15,ENE,68,2.0,2.0,29,0.00,,,0.00,WUHU216HW,2013-01-17 13:29:00,
2013-01-17 06:34:00,41.4,11.4,30.15,ENE,68,2.0,2.0,29,0.00,,,0.00,WUHU216HW,2013-01-17 13:34:00,
2013-01-17 06:59:00,42.1,12.1,30.16,ESE,113,1.1,1.1,29,0.00,,,0.00,WUHU216HW,2013-01-17 13:59:00,
2013-01-17 07:04:00,42.1,12.1,30.16,ESE,113,1.1,1.1,29,0.00,,,0.00,WUHU216HW,2013-01-17 14:04:00,
2013-01-17 07:09:00,42.1,12.1,30.16,ESE,113,1.1,1.1,29,0.00,,,0.00,WUHU216HW,2013-01-17 14:09:00,
2013-01-17 07:29:00,40.5,11.6,30.16,South,180,1.6,1.6,30,0.00,,,0.00,WUHU216HW,2013-01-17 14:29:00,
2013-01-17 07:34:00,40.5,11.6,30.16,South,180,1.6,1.6,30,0.00,,,0.00,WUHU216HW,2013-01-17 14:34:00,
2013-01-17 07:59:00,41.0,12.1,30.16,NNW,338,2.0,2.0,30,0.00,,,0.00,WUHU216HW,2013-01-17 14:59:00,
2013-01-17 08:04:00,41.0,12.1,30.16,NNW,338,2.0,2.0,30,0.00,,,0.00,WUHU216HW,2013-01-17 15:04:00,
2013-01-17 08:29:00,42.7,12.4,30.19,NNW,338,1.6,1.6,29,0.00,,,0.00,WUHU216HW,2013-01-17 15:29:00,
2013-01-17 08:34:00,42.7,12.4,30.19,NNW,338,1.6,1.6,29,0.00,,,0.00,WUHU216HW,2013-01-17 15:34:00,
2013-01-17 08:59:00,44.1,14.7,30.19,NNW,338,1.1,1.1,30,0.00,,,0.00,WUHU216HW,2013-01-17 15:59:00,
2013-01-17 09:04:00,44.1,14.7,30.19,NNW,338,1.1,1.1,30,0.00,,,0.00,WUHU216HW,2013-01-17 16:04:00,
2013-01-17 09:29:00,46.3,15.7,30.20,NNW,338,1.8,1.8,29,0.00,,,0.00,WUHU216HW,2013-01-17 16:29:00,
2013-01-17 09:34:00,46.3,15.7,30.20,NNW,338,1.8,1.8,29,0.00,,,0.00,WUHU216HW,2013-01-17 16:34:00,
2013-01-17 09:59:00,48.6,16.7,30.20,SSE,158,2.0,2.0,28,0.00,,,0.00,WUHU216HW,2013-01-17 16:59:00,
2013-01-17 10:04:00,48.6,16.7,30.20,SSE,158,2.0,2.0,28,0.00,,,0.00,WUHU216HW,2013-01-17 17:04:00,
2013-01-17 10:24:00,51.1,18.9,30.20,ESE,113,3.4,3.4,28,0.00,,,0.00,WUHU216HW,2013-01-17 17:24:00,
2013-01-17 10:29:00,51.8,18.6,30.21,East,90,6.9,9.2,27,0.00,,,0.00,WUHU216HW,2013-01-17 17:29:00,
2013-01-17 10:34:00,52.7,19.4,30.20,SE,135,7.6,11.4,27,0.00,,,0.00,WUHU216HW,2013-01-17 17:34:00,
2013-01-17 10:39:00,53.6,18.3,30.21,SE,135,11.9,12.3,25,0.00,,,0.00,WUHU216HW,2013-01-17 17:39:00,
2013-01-17 10:44:00,54.4,18.9,30.21,ESE,113,8.1,14.1,25,0.00,,,0.00,WUHU216HW,2013-01-17 17:44:00,
2013-01-17 10:49:00,55.1,18.5,30.20,SE,135,10.5,14.3,24,0.00,,,0.00,WUHU216HW,2013-01-17 17:49:00,
2013-01-17 10:54:00,55.8,19.2,30.20,SSE,158,11.4,14.3,24,0.00,,,0.00,WUHU216HW,2013-01-17 17:54:00,
2013-01-17 10:59:00,56.3,18.7,30.20,ESE,113,12.8,14.5,23,0.00,,,0.00,WUHU216HW,2013-01-17 17:59:00,
2013-01-17 11:04:00,57.1,19.3,30.19,SE,135,11.4,14.5,23,0.00,,,0.00,WUHU216HW,2013-01-17 18:04:00,
2013-01-17 11:09:00,57.4,19.5,30.19,SE,135,8.7,12.8,23,0.00,,,0.00,WUHU216HW,2013-01-17 18:09:00,
2013-01-17 11:14:00,58.0,19.1,30.19,East,90,13.2,15.7,22,0.00,,,0.00,WUHU216HW,2013-01-17 18:14:00,
2013-01-17 11:19:00,58.5,19.5,30.19,East,90,12.8,15.7,22,0.00,,,0.00,WUHU216HW,2013-01-17 18:19:00,
2013-01-17 11:24:00,58.7,19.6,30.18,SE,135,11.0,15.7,22,0.00,,,0.00,WUHU216HW,2013-01-17 18:24:00,
2013-01-17 11:29:00,59.2,20.1,30.18,ESE,113,10.7,15.7,22,0.00,,,0.00,WUHU216HW,2013-01-17 18:29:00,
2013-01-17 11:34:00,59.6,19.4,30.18,ESE,113,9.6,13.6,21,0.00,,,0.00,WUHU216HW,2013-01-17 18:34:00,
2013-01-17 11:39:00,59.9,19.8,30.18,SE,135,8.9,13.4,21,0.00,,,0.00,WUHU216HW,2013-01-17 18:39:00,
2013-01-17 11:44:00,60.3,20.1,30.17,SE,135,12.3,15.7,21,0.00,,,0.00,WUHU216HW,2013-01-17 18:44:00,
2013-01-17 11:49:00,60.7,20.4,30.17,SE,135,11.6,15.7,21,0.00,,,0.00,WUHU216HW,2013-01-17 18:49:00,
2013-01-17 11:54:00,61.0,20.7,30.17,East,90,6.9,14.3,21,0.00,,,0.00,WUHU216HW,2013-01-17 18:54:00,
2013-01-17 11:59:00,61.4,21.0,30.16,SE,135,6.3,13.6,21,0.00,,,0.00,WUHU216HW,2013-01-17 18:59:00,
2013-01-17 12:04:00,61.6,21.2,30.16,SE,135,13.9,13.9,21,0.00,,,0.00,WUHU216HW,2013-01-17 19:04:00,
2013-01-17 12:09:00,61.9,21.4,30.16,ESE,113,4.7,13.9,21,0.00,,,0.00,WUHU216HW,2013-01-17 19:09:00,
2013-01-17 12:14:00,62.3,21.8,30.16,SE,135,10.5,13.9,21,0.00,,,0.00,WUHU216HW,2013-01-17 19:14:00,
2013-01-17 12:19:00,62.8,22.1,30.15,SSE,158,8.1,12.8,21,0.00,,,0.00,WUHU216HW,2013-01-17 19:19:00,
2013-01-17 12:24:00,63.2,21.5,30.15,ESE,113,10.3,12.8,20,0.00,,,0.00,WUHU216HW,2013-01-17 19:24:00,
2013-01-17 12:29:00,63.5,21.8,30.15,SSE,158,6.7,11.6,20,0.00,,,0.00,WUHU216HW,2013-01-17 19:29:00,
2013-01-17 12:34:00,63.7,20.3,30.15,SE,135,9.4,11.2,19,0.00,,,0.00,WUHU216HW,2013-01-17 19:34:00,
2013-01-17 12:39:00,64.1,20.6,30.15,SSE,158,6.9,11.9,19,0.00,,,0.00,WUHU216HW,2013-01-17 19:39:00,
2013-01-17 12:44:00,64.4,20.9,30.14,ESE,113,4.7,11.9,19,0.00,,,0.00,WUHU216HW,2013-01-17 19:44:00,
2013-01-17 12:49:00,64.8,21.3,30.14,SSE,158,9.2,11.0,19,0.00,,,0.00,WUHU216HW,2013-01-17 19:49:00,
2013-01-17 12:54:00,65.2,21.5,30.14,ESE,113,9.2,12.1,19,0.00,,,0.00,WUHU216HW,2013-01-17 19:54:00,
2013-01-17 12:59:00,65.5,21.8,30.13,ESE,113,7.8,12.1,19,0.00,,,0.00,WUHU216HW,2013-01-17 19:59:00,
2013-01-17 13:04:00,65.7,20.3,30.13,SE,135,7.6,11.4,18,0.00,,,0.00,WUHU216HW,2013-01-17 20:04:00,
2013-01-17 13:09:00,65.9,20.5,30.13,SSE,158,9.6,11.4,18,0.00,,,0.00,WUHU216HW,2013-01-17 20:09:00,
2013-01-17 13:14:00,66.2,20.8,30.13,South,180,4.0,11.4,18,0.00,,,0.00,WUHU216HW,2013-01-17 20:14:00,
2013-01-17 13:19:00,66.6,21.1,30.13,SSW,203,7.6,10.5,18,0.00,,,0.00,WUHU216HW,2013-01-17 20:19:00,
2013-01-17 13:24:00,66.8,21.2,30.12,SSE,158,9.8,11.4,18,0.00,,,0.00,WUHU216HW,2013-01-17 20:24:00,
2013-01-17 13:29:00,67.1,21.6,30.12,SSE,158,5.8,12.8,18,0.00,,,0.00,WUHU216HW,2013-01-17 20:29:00,
2013-01-17 13:34:00,67.3,21.7,30.12,SE,135,5.6,12.8,18,0.00,,,0.00,WUHU216HW,2013-01-17 20:34:00,
2013-01-17 13:39:00,67.5,21.9,30.11,South,180,2.7,10.5,18,0.00,,,0.00,WUHU216HW,2013-01-17 20:39:00,
2013-01-17 13:44:00,67.9,20.6,30.11,SSE,158,13.4,13.4,17,0.00,,,0.00,WUHU216HW,2013-01-17 20:44:00,
2013-01-17 13:49:00,68.0,20.8,30.11,SSE,158,8.7,13.4,17,0.00,,,0.00,WUHU216HW,2013-01-17 20:49:00,
2013-01-17 13:54:00,68.4,21.1,30.11,East,90,10.3,13.4,17,0.00,,,0.00,WUHU216HW,2013-01-17 20:54:00,
2013-01-17 13:59:00,68.6,21.2,30.11,SE,135,8.9,11.6,17,0.00,,,0.00,WUHU216HW,2013-01-17 20:59:00,
2013-01-17 14:04:00,68.8,21.3,30.11,ESE,113,9.6,11.6,17,0.00,,,0.00,WUHU216HW,2013-01-17 21:04:00,
2013-01-17 14:09:00,69.1,21.6,30.11,SE,135,6.9,15.9,17,0.00,,,0.00,WUHU216HW,2013-01-17 21:09:00,
2013-01-17 14:14:00,69.3,21.7,30.11,SE,135,8.3,15.9,17,0.00,,,0.00,WUHU216HW,2013-01-17 21:14:00,
2013-01-17 14:19:00,69.5,20.3,30.11,SE,135,6.9,12.8,16,0.00,,,0.00,WUHU216HW,2013-01-17 21:19:00,
2013-01-17 14:24:00,69.5,20.3,30.11,SSE,158,6.0,12.1,16,0.00,,,0.00,WUHU216HW,2013-01-17 21:24:00,
2013-01-17 14:29:00,69.8,20.5,30.11,SSE,158,11.0,12.3,16,0.00,,,0.00,WUHU216HW,2013-01-17 21:29:00,
2013-01-17 14:34:00,69.8,20.5,30.11,ESE,113,4.7,12.3,16,0.00,,,0.00,WUHU216HW,2013-01-17 21:34:00,
2013-01-17 14:39:00,70.0,20.7,30.11,SE,135,8.7,11.6,16,0.00,,,0.00,WUHU216HW,2013-01-17 21:39:00,
2013-01-17 14:44:00,70.2,20.8,30.11,SE,135,9.2,13.9,16,0.00,,,0.00,WUHU216HW,2013-01-17 21:44:00,
2013-01-17 14:49:00,70.2,20.8,30.10,SSE,158,6.7,13.9,16,0.00,,,0.00,WUHU216HW,2013-01-17 21:49:00,
2013-01-17 14:54:00,70.6,21.1,30.11,SE,135,4.9,11.4,16,0.00,,,0.00,WUHU216HW,2013-01-17 21:54:00,
2013-01-17 14:59:00,70.6,21.1,30.11,SSE,158,8.9,11.4,16,0.00,,,0.00,WUHU216HW,2013-01-17 21:59:00,
2013-01-17 15:04:00,70.7,21.2,30.11,SE,135,4.0,9.8,16,0.00,,,0.00,WUHU216HW,2013-01-17 22:04:00,
2013-01-17 15:09:00,70.7,21.2,30.11,ESE,113,6.5,12.8,16,0.00,,,0.00,WUHU216HW,2013-01-17 22:09:00,
2013-01-17 15:14:00,70.7,21.2,30.10,SE,135,7.4,12.8,16,0.00,,,0.00,WUHU216HW,2013-01-17 22:14:00,
2013-01-17 15:19:00,70.7,21.2,30.10,East,90,10.5,14.5,16,0.00,,,0.00,WUHU216HW,2013-01-17 22:19:00,
2013-01-17 15:24:00,70.7,21.2,30.10,SE,135,4.0,14.5,16,0.00,,,0.00,WUHU216HW,2013-01-17 22:24:00,
2013-01-17 15:29:00,70.7,21.2,30.11,South,180,5.6,12.1,16,0.00,,,0.00,WUHU216HW,2013-01-17 22:29:00,
2013-01-17 15:34:00,70.9,19.8,30.11,SE,135,5.6,10.5,15,0.00,,,0.00,WUHU216HW,2013-01-17 22:34:00,
2013-01-17 15:39:00,70.9,21.4,30.11,ESE,113,9.6,13.4,16,0.00,,,0.00,WUHU216HW,2013-01-17 22:39:00,
2013-01-17 15:44:00,70.9,21.4,30.11,SE,135,7.8,13.4,16,0.00,,,0.00,WUHU216HW,2013-01-17 22:44:00,
2013-01-17 15:49:00,70.7,21.2,30.11,ESE,113,9.2,11.2,16,0.00,,,0.00,WUHU216HW,2013-01-17 22:49:00,
2013-01-17 15:54:00,70.7,19.6,30.11,East,90,6.3,10.5,15,0.00,,,0.00,WUHU216HW,2013-01-17 22:54:00,
2013-01-17 15:59:00,70.7,19.6,30.11,SE,135,9.2,12.1,15,0.00,,,0.00,WUHU216HW,2013-01-17 22:59:00,
2013-01-17 16:04:00,70.6,19.4,30.11,SE,135,6.3,12.1,15,0.00,,,0.00,WUHU216HW,2013-01-17 23:04:00,
2013-01-17 16:09:00,70.4,19.4,30.11,SSE,158,6.0,10.3,15,0.00,,,0.00,WUHU216HW,2013-01-17 23:09:00,
2013-01-17 16:14:00,70.6,19.4,30.11,SE,135,10.5,12.8,15,0.00,,,0.00,WUHU216HW,2013-01-17 23:14:00,
2013-01-17 16:19:00,70.4,19.4,30.11,SE,135,4.7,12.8,15,0.00,,,0.00,WUHU216HW,2013-01-17 23:19:00,
2013-01-17 16:24:00,70.4,19.4,30.12,SE,135,4.9,12.3,15,0.00,,,0.00,WUHU216HW,2013-01-17 23:24:00,
2013-01-17 16:29:00,70.2,19.2,30.12,ESE,113,8.3,8.5,15,0.00,,,0.00,WUHU216HW,2013-01-17 23:29:00,
2013-01-17 16:34:00,70.0,19.1,30.12,ESE,113,7.6,9.2,15,0.00,,,0.00,WUHU216HW,2013-01-17 23:34:00,
2013-01-17 16:39:00,70.0,19.1,30.12,ESE,113,8.3,9.8,15,0.00,,,0.00,WUHU216HW,2013-01-17 23:39:00,
2013-01-17 16:44:00,69.8,18.9,30.12,East,90,6.0,9.8,15,0.00,,,0.00,WUHU216HW,2013-01-17 23:44:00,
2013-01-17 16:49:00,69.8,18.9,30.12,ESE,113,6.3,9.4,15,0.00,,,0.00,WUHU216HW,2013-01-17 23:49:00,
2013-01-17 16:54:00,69.5,18.6,30.12,SSE,158,4.7,9.4,15,0.00,,,0.00,WUHU216HW,2013-01-17 23:54:00,
2013-01-17 16:59:00,69.3,20.1,30.12,SE,135,4.9,8.1,16,0.00,,,0.00,WUHU216HW,2013-01-17 23:59:00,
2013-01-17 17:04:00,69.3,18.5,30.12,SSE,158,5.8,6.3,15,0.00,,,0.00,WUHU216HW,2013-01-18 00:04:00,
2013-01-17 17:09:00,69.1,18.4,30.12,SE,135,4.0,6.0,15,0.00,,,0.00,WUHU216HW,2013-01-18 00:09:00,
2013-01-17 17:14:00,69.1,18.4,30.12,SE,135,4.0,5.8,15,0.00,,,0.00,WUHU216HW,2013-01-18 00:14:00,
2013-01-17 17:36:00,66.2,17.7,30.12,ESE,113,5.1,5.1,16,0.00,,,0.00,WUHU216HW,2013-01-18 00:36:00,
2013-01-17 17:41:00,66.2,17.7,30.12,ESE,113,5.1,5.1,16,0.00,,,0.00,WUHU216HW,2013-01-18 00:41:00,
2013-01-17 17:59:00,62.5,16.2,30.12,ENE,68,4.0,4.0,17,0.00,,,0.00,WUHU216HW,2013-01-18 00:59:00,
2013-01-17 18:04:00,62.3,16.1,30.12,SE,135,4.7,4.7,17,0.00,,,0.00,WUHU216HW,2013-01-18 01:04:00,
2013-01-17 18:09:00,62.3,16.1,30.12,SE,135,4.7,4.7,17,0.00,,,0.00,WUHU216HW,2013-01-18 01:09:00,
2013-01-17 18:30:00,59.6,15.4,30.12,ENE,68,2.7,2.7,18,0.00,,,0.00,WUHU216HW,2013-01-18 01:30:00,
2013-01-17 18:35:00,59.6,15.4,30.12,ENE,68,2.7,2.7,18,0.00,,,0.00,WUHU216HW,2013-01-18 01:35:00,
2013-01-17 18:59:00,58.1,12.6,30.13,ENE,68,0.0,0.0,17,0.00,,,0.00,WUHU216HW,2013-01-18 01:59:00,
2013-01-17 19:04:00,58.1,12.6,30.13,ENE,68,0.0,0.0,17,0.00,,,0.00,WUHU216HW,2013-01-18 02:04:00,
2013-01-17 19:29:00,58.1,12.6,30.13,NNW,338,0.4,0.4,17,0.00,,,0.00,WUHU216HW,2013-01-18 02:29:00,
2013-01-17 19:34:00,58.1,12.6,30.13,NNW,338,0.4,0.4,17,0.00,,,0.00,WUHU216HW,2013-01-18 02:34:00,
2013-01-17 19:59:00,58.0,14.0,30.14,West,270,1.1,1.1,18,0.00,,,0.00,WUHU216HW,2013-01-18 02:59:00,
2013-01-17 20:04:00,58.0,14.0,30.14,West,270,1.1,1.1,18,0.00,,,0.00,WUHU216HW,2013-01-18 03:04:00,
2013-01-17 20:29:00,56.0,15.6,30.14,NNW,338,1.8,1.8,20,0.00,,,0.00,WUHU216HW,2013-01-18 03:29:00,
2013-01-17 20:34:00,56.0,15.6,30.14,NNW,338,1.8,1.8,20,0.00,,,0.00,WUHU216HW,2013-01-18 03:34:00,
2013-01-17 20:59:00,55.1,14.8,30.14,NW,315,2.5,2.5,20,0.00,,,0.00,WUHU216HW,2013-01-18 03:59:00,
2013-01-17 21:04:00,55.1,14.8,30.14,NW,315,2.5,2.5,20,0.00,,,0.00,WUHU216HW,2013-01-18 04:04:00,
2013-01-17 21:09:00,55.1,14.8,30.14,NW,315,2.5,2.5,20,0.00,,,0.00,WUHU216HW,2013-01-18 04:09:00,
2013-01-17 21:29:00,54.2,15.0,30.15,NW,315,2.2,2.2,21,0.00,,,0.00,WUHU216HW,2013-01-18 04:29:00,
2013-01-17 21:34:00,54.2,15.0,30.15,NW,315,2.2,2.2,21,0.00,,,0.00,WUHU216HW,2013-01-18 04:34:00,
2013-01-17 21:59:00,53.8,15.6,30.16,NNW,338,1.8,1.8,22,0.00,,,0.00,WUHU216HW,2013-01-18 04:59:00,
2013-01-17 22:01:00,53.8,15.6,30.16,NNW,338,1.8,1.8,22,0.00,,,0.00,WUHU216HW,2013-01-18 05:01:00,
2013-01-17 22:03:00,53.8,15.6,30.16,NNW,338,1.8,1.8,22,0.00,,,0.00,WUHU216HW,2013-01-18 05:03:00,
2013-01-17 22:08:00,53.8,15.6,30.16,NNW,338,1.8,1.8,22,0.00,,,0.00,WUHU216HW,2013-01-18 05:08:00,
2013-01-17 22:29:00,53.5,15.3,30.16,NNW,338,1.3,1.3,22,0.00,,,0.00,WUHU216HW,2013-01-18 05:29:00,
2013-01-17 22:34:00,53.5,15.3,30.16,NNW,338,1.3,1.3,22,0.00,,,0.00,WUHU216HW,2013-01-18 05:34:00,
2013-01-17 22:59:00,52.2,14.2,30.15,West,270,2.5,2.5,22,0.00,,,0.00,WUHU216HW,2013-01-18 05:59:00,
2013-01-17 23:04:00,52.2,14.2,30.15,West,270,2.5,2.5,22,0.00,,,0.00,WUHU216HW,2013-01-18 06:04:00,
2013-01-17 23:29:00,51.5,14.6,30.15,NNW,338,1.3,1.3,23,0.00,,,0.00,WUHU216HW,2013-01-18 06:29:00,
2013-01-17 23:34:00,51.5,14.6,30.15,NNW,338,1.3,1.3,23,0.00,,,0.00,WUHU216HW,2013-01-18 06:34:00,
2013-01-17 23:59:00,50.8,15.0,30.14,West,270,1.1,1.1,24,0.00,,,0.00,WUHU216HW,2013-01-18 06:59:00,